Time;durP1;ratioP1;P1;durP2;ratioP2;P2;SDS_P1;SDS_P2;PMS_P1;PMS_P2;Temp;Humidity;BMP_temperature;BMP_pressure;BME280_temperature;BME280_humidity;BME280_pressure;Samples;Min_cycle;Max_cycle;Signal;HPM_P1;HPM_P2
2022/08/03 00:02:18;;;;;;;7.15;4.95;;;;;;;19.59;57.00;99992.19;4900903;29;20202;-76
2022/08/03 00:04:45;;;;;;;6.75;4.88;;;;;;;19.55;56.92;99979.09;4901403;29;20057;-77
2022/08/03 00:07:12;;;;;;;5.30;4.38;;;;;;;19.60;56.76;99982.50;4900995;29;20060;-77
2022/08/03 00:09:39;;;;;;;6.95;4.97;;;;;;;19.64;56.96;99990.28;4901107;29;20057;-77
2022/08/03 00:12:07;;;;;;;5.45;4.40;;;;;;;19.61;56.66;99990.38;4901190;29;20080;-76
2022/08/03 00:14:34;;;;;;;5.65;4.93;;;;;;;19.67;56.59;99989.31;4915168;29;20541;-76
2022/08/03 00:17:02;;;;;;;6.03;4.43;;;;;;;19.60;56.79;99979.84;4900856;29;20053;-77
2022/08/03 00:19:29;;;;;;;5.32;4.40;;;;;;;19.62;56.88;99985.97;4908047;29;20055;-79
2022/08/03 00:21:56;;;;;;;6.43;4.93;;;;;;;19.42;56.71;99953.00;4933401;29;20382;-77
2022/08/03 00:24:23;;;;;;;5.50;4.90;;;;;;;19.62;56.94;99993.91;4918478;29;20059;-77
2022/08/03 00:26:50;;;;;;;5.70;4.90;;;;;;;19.61;57.07;99990.38;4918684;29;20510;-79
2022/08/03 00:29:18;;;;;;;7.05;5.35;;;;;;;19.47;57.13;99975.81;4933017;29;20083;-77
2022/08/03 00:31:45;;;;;;;4.93;4.40;;;;;;;19.55;57.43;99995.00;4917827;29;20052;-78
2022/08/03 00:34:26;;;;;;;5.43;4.93;;;;;;;19.57;57.12;99994.03;4911705;29;20052;-78
2022/08/03 00:37:13;;;;;;;5.32;4.80;;;;;;;19.52;57.50;99990.66;4918274;29;20060;-76
2022/08/03 00:39:47;;;;;;;7.07;5.35;;;;;;;19.49;57.52;99979.28;4918627;29;20056;-76
2022/08/03 00:42:58;;;;;;;5.85;5.25;;;;;;;19.37;57.42;99973.47;4918571;29;20052;-76
2022/08/03 00:45:31;;;;;;;8.20;5.22;;;;;;;19.21;57.72;99956.34;4918133;29;20139;-75
2022/08/03 00:48:00;;;;;;;6.13;5.20;;;;;;;19.38;57.89;100000.81;4918367;29;20486;-76
2022/08/03 00:50:29;;;;;;;7.72;5.32;;;;;;;19.37;57.95;99977.91;4918063;29;20116;-77
2022/08/03 00:52:58;;;;;;;7.25;5.00;;;;;;;19.36;57.70;99987.63;4917488;29;20055;-76
2022/08/03 00:55:25;;;;;;;5.55;5.05;;;;;;;19.31;57.97;99978.94;4929315;29;20052;-76
2022/08/03 00:57:53;;;;;;;5.80;5.20;;;;;;;19.28;58.11;99972.91;4918848;29;20196;-76
2022/08/03 01:00:23;;;;;;;5.75;5.15;;;;;;;19.31;58.08;99978.94;4917693;29;20403;-78
2022/08/03 01:02:52;;;;;;;8.15;5.45;;;;;;;19.26;58.03;99980.03;4919870;29;20059;-79
2022/08/03 01:05:22;;;;;;;6.63;5.25;;;;;;;19.26;58.48;99995.91;4936850;29;20071;-78
2022/08/03 01:07:48;;;;;;;;;;;;;;;19.00;58.51;99976.38;4937461;29;20573;-77
2022/08/03 01:10:46;;;;;;;6.18;5.10;;;;;;;18.99;58.69;99969.31;4936760;29;19973;-77
2022/08/03 01:13:32;;;;;;;7.72;5.07;;;;;;;19.08;58.91;99977.00;4936601;29;20063;-78
2022/08/03 01:16:19;;;;;;;7.00;5.00;;;;;;;19.01;59.23;99978.09;4948664;29;20052;-77
2022/08/03 01:18:58;;;;;;;6.85;5.22;;;;;;;18.98;59.26;99971.09;4951599;28;20498;-77
2022/08/03 01:21:51;;;;;;;9.50;5.03;;;;;;;18.91;59.36;99988.09;4936654;29;20078;-77
2022/08/03 01:24:30;;;;;;;7.18;5.32;;;;;;;18.95;59.45;99975.63;4936444;29;20400;-76
2022/08/03 01:27:04;;;;;;;5.97;5.38;;;;;;;18.90;59.55;99981.03;4937310;29;20070;-77
2022/08/03 01:29:57;;;;;;;6.38;5.68;;;;;;;18.89;59.67;99974.03;4936716;29;20070;-78
2022/08/03 01:32:30;;;;;;;9.30;5.57;;;;;;;18.92;59.95;99965.13;4936341;29;20051;-77
2022/08/03 01:35:44;;;;;;;9.13;5.93;;;;;;;18.83;59.76;99985.66;4936377;29;20058;-77
2022/08/03 01:38:28;;;;;;;5.72;5.10;;;;;;;18.74;59.86;99969.16;4923480;29;20052;-77
2022/08/03 01:40:56;;;;;;;6.53;5.70;;;;;;;18.78;60.50;99987.56;4936467;29;20110;-76
2022/08/03 01:43:29;;;;;;;6.57;5.40;;;;;;;18.70;60.35;99965.72;4936093;29;20059;-76
2022/08/03 01:46:19;;;;;;;8.65;5.55;;;;;;;18.77;60.26;99969.06;4936080;29;20114;-77
2022/08/03 01:48:48;;;;;;;5.75;5.20;;;;;;;18.83;60.16;99982.16;4936158;29;20056;-77
2022/08/03 01:51:18;;;;;;;6.47;5.75;;;;;;;18.83;60.28;99976.84;4935993;29;20060;-77
2022/08/03 01:53:48;;;;;;;6.88;5.82;;;;;;;18.75;60.11;99955.00;4936212;29;20588;-77
2022/08/03 01:56:16;;;;;;;6.65;5.68;;;;;;;18.95;60.14;99986.19;4935962;29;20063;-77
2022/08/03 01:58:47;;;;;;;6.03;5.28;;;;;;;19.03;59.78;99984.22;4936077;29;20056;-79
2022/08/03 02:01:15;;;;;;;6.13;5.53;;;;;;;19.07;59.90;99995.59;4936406;29;20067;-77
2022/08/03 02:03:45;;;;;;;5.72;5.13;;;;;;;18.98;59.38;99967.59;4936176;29;20060;-77
2022/08/03 02:06:31;;;;;;;5.72;5.15;;;;;;;19.12;59.66;99986.59;4932230;29;20083;-78
2022/08/03 02:09:21;;;;;;;6.72;5.63;;;;;;;19.17;59.35;99989.09;4923621;29;20052;-77
2022/08/03 02:11:50;;;;;;;5.68;5.15;;;;;;;19.28;59.03;99989.66;4917506;29;20202;-76
2022/08/03 02:14:20;;;;;;;7.47;5.40;;;;;;;19.48;58.71;99993.47;4916769;29;20063;-78
2022/08/03 02:16:48;;;;;;;8.23;5.47;;;;;;;19.58;58.18;99982.53;4916784;29;20056;-77
2022/08/03 02:19:17;;;;;;;9.95;5.97;;;;;;;19.43;58.04;99952.09;4917393;29;20188;-77
2022/08/03 02:21:45;;;;;;;7.13;5.47;;;;;;;19.49;57.71;99950.16;4917955;29;20467;-78
2022/08/03 02:24:26;;;;;;;6.40;5.80;;;;;;;19.83;57.61;99989.69;4912214;29;20060;-77
2022/08/03 02:26:55;;;;;;;8.75;5.45;;;;;;;19.93;57.01;99983.19;4916327;29;20455;-77
2022/08/03 02:29:28;;;;;;;9.65;5.50;;;;;;;20.08;57.04;99994.22;4923886;29;20047;-77
2022/08/03 02:32:11;;;;;;;7.25;5.45;;;;;;;20.23;56.58;99985.72;4911381;29;20051;-78
2022/08/03 02:34:45;;;;;;;9.80;5.85;;;;;;;20.34;56.13;99988.00;4922438;29;20056;-75
2022/08/03 02:37:13;;;;;;;6.30;5.70;;;;;;;20.40;56.06;99999.28;4917681;29;20541;-79
2022/08/03 02:39:42;;;;;;;8.85;5.72;;;;;;;20.52;55.58;99992.69;4917699;29;20067;-76
2022/08/03 02:42:13;;;;;;;5.65;5.15;;;;;;;20.75;55.00;99997.16;4939492;29;20075;-77
2022/08/03 02:44:47;;;;;;;6.38;5.60;;;;;;;20.81;54.24;99946.50;4925284;29;20060;-77
2022/08/03 02:47:14;;;;;;;6.80;5.35;;;;;;;21.24;53.80;99997.13;4925192;29;20085;-76
2022/08/03 02:49:43;;;;;;;7.72;5.32;;;;;;;22.23;51.44;99994.94;4921979;29;20151;-79
2022/08/03 02:52:25;;;;;;;5.50;5.00;;;;;;;24.49;45.96;99988.81;4920278;29;20066;-79
2022/08/03 02:55:03;;;;;;;8.57;5.35;;;;;;;26.19;42.08;99978.50;4924132;29;20120;-79
2022/08/03 02:57:38;;;;;;;7.43;5.15;;;;;;;27.31;39.16;99963.56;4923799;29;20404;-78
2022/08/03 03:00:07;;;;;;;5.78;4.97;;;;;;;28.25;37.46;99994.13;4930519;29;20063;-77
2022/08/03 03:02:39;;;;;;;6.43;5.03;;;;;;;28.47;37.04;99985.44;4952067;29;20146;-79
2022/08/03 03:05:11;;;;;;;6.30;5.05;;;;;;;28.72;35.90;99968.50;4935245;29;20055;-76
2022/08/03 03:07:58;;;;;;;6.40;5.03;;;;;;;29.20;35.63;99971.34;4935408;29;20062;-77
2022/08/03 03:10:27;;;;;;;6.60;4.83;;;;;;;30.19;33.56;99983.75;4925227;29;20141;-77
2022/08/03 03:12:56;;;;;;;5.90;5.30;;;;;;;29.95;33.21;99919.19;4940681;29;20291;-77
2022/08/03 03:15:25;;;;;;;5.80;5.25;;;;;;;29.55;34.62;99987.59;4924114;29;20056;-76
2022/08/03 03:17:53;;;;;;;8.15;5.53;;;;;;;28.13;37.08;99987.72;4915493;29;20581;-76
2022/08/03 03:20:22;;;;;;;7.82;5.47;;;;;;;28.69;36.11;100000.94;4916555;29;20487;-76
2022/08/03 03:23:00;;;;;;;5.75;4.80;;;;;;;31.22;31.79;99991.91;4916318;29;20163;-77
2022/08/03 03:25:30;;;;;;;6.03;5.15;;;;;;;32.26;30.30;99989.66;4916087;29;20107;-78
2022/08/03 03:27:59;;;;;;;5.72;4.82;;;;;;;31.46;30.69;99951.28;4919974;29;20108;-77
2022/08/03 03:30:28;;;;;;;5.75;5.13;;;;;;;31.42;31.33;99988.47;4938857;29;20059;-77
2022/08/03 03:32:59;;;;;;;6.97;5.40;;;;;;;31.69;30.66;99980.94;4927095;29;20059;-79
2022/08/03 03:35:29;;;;;;;5.28;4.72;;;;;;;31.49;30.84;99988.84;4938396;29;20048;-76
2022/08/03 03:38:08;;;;;;;7.47;5.25;;;;;;;31.69;30.74;99986.34;4901268;29;20063;-76
2022/08/03 03:40:36;;;;;;;7.47;5.05;;;;;;;32.33;29.70;99996.25;4899922;29;20515;-76
2022/08/03 03:43:08;;;;;;;6.60;5.28;;;;;;;33.28;28.83;99988.00;4912786;29;20123;-76
2022/08/03 03:45:36;;;;;;;8.15;5.03;;;;;;;33.29;28.52;99995.09;4916088;29;20606;-76
2022/08/03 03:48:04;;;;;;;5.63;5.03;;;;;;;32.90;28.94;99994.06;4916237;29;20067;-77
2022/08/03 03:50:33;;;;;;;5.50;5.00;;;;;;;32.59;29.35;99999.44;4916574;29;20064;-79
2022/08/03 03:53:01;;;;;;;6.55;5.28;;;;;;;31.86;30.31;99988.47;4916756;29;20143;-79
2022/08/03 03:55:29;;;;;;;7.85;5.35;;;;;;;31.57;30.71;100002.53;4916505;29;20056;-79
2022/08/03 03:57:56;;;;;;;6.13;5.53;;;;;;;31.84;30.78;99996.69;4916579;29;20052;-79
2022/08/03 04:00:23;;;;;;;8.70;5.25;;;;;;;32.37;29.33;100011.22;4916304;29;20471;-79
2022/08/03 04:02:50;;;;;;;5.97;5.40;;;;;;;31.67;30.73;100005.34;4916747;29;20052;-80
2022/08/03 04:11:10;;;;;;;6.68;5.20;;;;;;;29.40;34.48;100011.13;4928351;29;20068;-76
2022/08/03 04:13:42;;;;;;;8.25;5.85;;;;;;;28.78;35.83;100003.88;4932794;29;20080;-78
2022/08/03 04:16:13;;;;;;;6.60;5.55;;;;;;;28.47;36.27;100023.03;4934612;29;20064;-78
2022/08/03 04:18:43;;;;;;;9.18;5.43;;;;;;;28.07;37.14;99999.78;4944083;29;20087;-79
2022/08/03 04:21:13;;;;;;;9.48;6.07;;;;;;;27.89;37.82;100028.69;4949637;29;20091;-78
2022/08/03 04:23:43;;;;;;;7.88;5.82;;;;;;;27.65;38.61;100016.84;4954312;29;20032;-79
2022/08/03 04:26:14;;;;;;;9.02;5.82;;;;;;;27.31;39.27;100016.34;4936240;29;20075;-77
2022/08/03 04:28:44;;;;;;;9.45;6.00;;;;;;;27.18;39.61;100017.09;4919219;29;20120;-79
2022/08/03 04:31:14;;;;;;;6.00;5.35;;;;;;;26.92;39.76;100007.16;4938836;29;20052;-79
2022/08/03 04:33:42;;;;;;;;;;;;;;;26.69;40.13;100019.28;4920346;29;20060;-78
2022/08/03 04:36:15;;;;;;;7.53;5.30;;;;;;;26.61;40.63;99984.94;4919762;29;20415;-78
2022/08/03 04:39:06;;;;;;;9.27;5.97;;;;;;;26.74;40.84;100019.88;4919307;29;20080;-79
2022/08/03 04:41:34;;;;;;;6.97;5.65;;;;;;;26.64;40.99;100008.00;4919391;29;20055;-80
2022/08/03 04:44:24;;;;;;;9.50;5.90;;;;;;;26.74;41.28;100026.09;4919347;29;20562;-78
2022/08/03 04:46:56;;;;;;;8.38;5.75;;;;;;;26.76;41.05;100012.59;4920638;29;20056;-78
2022/08/03 04:49:24;;;;;;;9.20;6.35;;;;;;;26.82;41.04;100016.72;4919841;29;20131;-79
2022/08/03 04:51:52;;;;;;;7.75;5.50;;;;;;;26.86;41.54;100037.84;4925243;29;20051;-79
2022/08/03 04:54:19;;;;;;;10.30;6.25;;;;;;;26.99;41.25;100035.28;4930800;29;20051;-80
2022/08/03 04:56:46;;;;;;;6.38;5.78;;;;;;;26.93;40.89;100036.53;4927012;29;20458;-79
2022/08/03 04:59:13;;;;;;;7.60;6.78;;;;;;;26.86;41.36;100027.13;4927024;29;20052;-79
2022/08/03 05:01:43;;;;;;;6.43;5.82;;;;;;;26.98;41.26;100036.25;4927000;29;20142;-82
2022/08/03 05:04:10;;;;;;;8.55;6.13;;;;;;;27.10;40.91;100022.09;4926954;29;20426;-80
2022/08/03 05:06:37;;;;;;;9.90;6.00;;;;;;;27.16;41.04;100021.69;4925950;29;20056;-79
2022/08/03 05:09:14;;;;;;;9.93;6.07;;;;;;;27.20;40.97;100038.44;4926423;29;20498;-79
2022/08/03 05:12:01;;;;;;;8.50;6.45;;;;;;;27.14;40.94;100034.31;4924765;29;20048;-79
2022/08/03 05:14:29;;;;;;;8.00;6.22;;;;;;;27.11;41.15;100041.72;4926420;29;20048;-79
2022/08/03 05:16:56;;;;;;;9.65;6.47;;;;;;;27.23;41.07;100030.22;4930598;29;20075;-78
2022/08/03 05:19:26;;;;;;;9.80;6.10;;;;;;;27.25;40.90;100025.63;4926800;29;20043;-78
2022/08/03 05:21:53;;;;;;;10.90;6.35;;;;;;;27.33;40.79;100014.44;4930490;29;20059;-77
2022/08/03 05:24:20;;;;;;;8.00;5.68;;;;;;;27.54;40.61;100033.66;4925879;29;20127;-78
2022/08/03 05:26:47;;;;;;;11.27;8.07;;;;;;;27.27;40.51;99977.28;4928793;29;20060;-78
2022/08/03 05:29:14;;;;;;;8.02;6.35;;;;;;;27.66;40.51;100037.34;4928347;29;20051;-77
2022/08/03 05:31:41;;;;;;;8.95;6.20;;;;;;;27.74;40.31;100024.28;4929294;29;20055;-78
2022/08/03 05:34:08;;;;;;;9.50;5.93;;;;;;;27.98;39.43;100037.94;4939306;29;20082;-77
2022/08/03 05:36:35;;;;;;;8.57;6.38;;;;;;;28.03;39.33;100032.28;4926036;29;20087;-78
2022/08/03 05:39:02;;;;;;;8.02;6.10;;;;;;;27.83;40.14;100033.56;4923199;29;20054;-79
2022/08/03 05:41:29;;;;;;;7.90;6.15;;;;;;;27.89;39.77;100035.88;4936941;29;20082;-80
2022/08/03 05:44:03;;;;;;;9.15;6.22;;;;;;;27.91;39.17;100025.91;4932191;29;20052;-78
2022/08/03 05:46:31;;;;;;;6.88;6.20;;;;;;;27.96;39.02;100035.38;4915920;29;20150;-79
2022/08/03 05:48:58;;;;;;;8.68;5.93;;;;;;;28.04;38.87;100031.31;4917972;29;20063;-78
2022/08/03 05:51:25;;;;;;;6.95;5.80;;;;;;;28.14;38.28;100043.19;4925339;29;20067;-79
2022/08/03 05:53:52;;;;;;;8.60;6.18;;;;;;;28.19;38.30;100038.34;4917050;29;20059;-78
2022/08/03 05:56:24;;;;;;;6.45;5.85;;;;;;;28.08;38.31;100031.00;4916865;29;20044;-79
2022/08/03 05:58:52;;;;;;;8.98;6.13;;;;;;;27.85;38.44;99989.59;4921339;29;20059;-80
2022/08/03 06:01:23;;;;;;;8.77;6.15;;;;;;;28.21;39.07;100040.94;4916103;29;20533;-80
2022/08/03 06:03:51;;;;;;;9.20;5.75;;;;;;;28.19;38.61;100035.66;4916927;29;20533;-78
2022/08/03 06:06:18;;;;;;;8.00;6.20;;;;;;;28.23;39.05;100039.00;4916948;29;20059;-78
2022/08/03 06:08:47;;;;;;;8.55;6.13;;;;;;;28.29;38.56;100042.13;4916835;29;20482;-80
2022/08/03 06:11:15;;;;;;;6.30;5.70;;;;;;;28.10;38.14;100031.78;4903223;29;20467;-78
2022/08/03 06:13:42;;;;;;;8.05;5.57;;;;;;;28.28;37.98;100032.34;4942677;29;20056;-78
2022/08/03 06:16:10;;;;;;;5.72;5.10;;;;;;;28.43;37.63;100030.44;4951217;29;20083;-78
2022/08/03 06:18:42;;;;;;;7.30;5.13;;;;;;;28.50;37.74;100030.91;4914546;29;20052;-78
2022/08/03 06:21:11;;;;;;;5.53;5.00;;;;;;;28.56;37.74;100027.81;4930779;29;20089;-77
2022/08/03 06:23:46;;;;;;;7.13;5.00;;;;;;;28.56;37.92;100020.59;4930385;29;20091;-79
2022/08/03 06:26:23;;;;;;;9.50;4.90;;;;;;;28.59;37.49;100025.78;4944170;29;20047;-77
2022/08/03 06:28:53;;;;;;;6.68;4.75;;;;;;;28.64;37.23;100020.09;4932755;29;20315;-78
2022/08/03 06:31:24;;;;;;;5.32;4.45;;;;;;;28.53;36.77;100031.56;4931605;29;20048;-78
2022/08/03 06:34:04;;;;;;;7.60;4.72;;;;;;;28.04;38.11;99997.28;4927419;29;20092;-79
2022/08/03 06:36:53;;;;;;;5.57;4.57;;;;;;;27.98;38.36;100036.16;4912901;29;20052;-78
2022/08/03 06:39:28;;;;;;;6.28;4.57;;;;;;;28.10;38.28;100030.91;4943453;29;20054;-79
2022/08/03 06:42:00;;;;;;;6.57;4.43;;;;;;;28.13;38.19;100033.38;4929879;29;20062;-78
2022/08/03 06:44:28;;;;;;;4.90;4.50;;;;;;;28.02;37.92;100023.34;4917111;29;20076;-78
2022/08/03 06:46:55;;;;;;;6.38;4.35;;;;;;;28.02;37.88;100028.72;4925649;29;20080;-78
2022/08/03 06:49:22;;;;;;;5.95;4.30;;;;;;;28.00;37.38;100046.75;4928274;29;20063;-78
2022/08/03 06:51:52;;;;;;;8.15;4.40;;;;;;;27.90;38.24;100035.78;4934169;29;20059;-79
2022/08/03 06:54:31;;;;;;;6.75;4.20;;;;;;;27.91;37.96;100032.13;4935100;29;20058;-81
2022/08/03 06:57:06;;;;;;;6.25;4.38;;;;;;;27.80;38.03;99997.06;4902163;29;20056;-82
2022/08/03 06:59:35;;;;;;;9.88;4.57;;;;;;;28.18;37.20;100031.28;4934466;29;20164;-79
2022/08/03 07:02:29;;;;;;;7.30;4.50;;;;;;;28.15;36.66;100039.50;4911751;29;20111;-79
2022/08/03 07:05:00;;;;;;;6.90;4.70;;;;;;;27.94;37.18;100015.84;4916074;29;20416;-79
2022/08/03 07:07:28;;;;;;;5.15;4.07;;;;;;;28.13;37.12;100019.97;4916925;29;20430;-79
2022/08/03 07:09:55;;;;;;;6.45;4.68;;;;;;;28.57;36.56;100046.53;4931423;29;20064;-78
2022/08/03 07:12:25;;;;;;;6.00;5.18;;;;;;;28.87;36.21;100036.44;4916946;29;20056;-79
2022/08/03 07:14:52;;;;;;;4.40;3.92;;;;;;;28.83;34.19;100041.16;4917108;29;20498;-79
2022/08/03 07:17:27;;;;;;;4.18;3.72;;;;;;;28.53;35.23;100044.16;4921371;29;20055;-79
2022/08/03 07:19:55;;;;;;;4.03;3.60;;;;;;;28.00;35.77;100006.50;4925860;29;20075;-78
2022/08/03 07:22:22;;;;;;;5.93;4.05;;;;;;;27.98;35.80;100016.47;4925101;29;20051;-78
2022/08/03 07:24:49;;;;;;;5.10;3.63;;;;;;;28.16;35.48;100043.94;4926195;29;20107;-78
2022/08/03 07:27:16;;;;;;;5.13;3.25;;;;;;;28.03;35.17;100041.22;4921997;29;20064;-79
2022/08/03 07:29:43;;;;;;;5.15;3.20;;;;;;;27.96;34.29;100032.69;4899924;29;20060;-77
2022/08/03 07:32:10;;;;;;;3.60;3.30;;;;;;;28.19;34.72;100044.56;4917074;29;20052;-78
2022/08/03 07:34:37;;;;;;;7.38;2.92;;;;;;;28.06;34.29;100006.09;4916768;29;20111;-77
2022/08/03 07:37:04;;;;;;;4.03;3.20;;;;;;;28.30;34.09;100043.00;4924290;29;20076;-79
2022/08/03 07:39:32;;;;;;;4.13;3.25;;;;;;;28.36;34.12;100045.25;4924080;29;20071;-79
2022/08/03 07:41:59;;;;;;;4.05;3.40;;;;;;;28.54;33.96;100032.44;4926668;29;20055;-78
2022/08/03 07:44:26;;;;;;;5.03;3.30;;;;;;;28.39;33.16;100004.75;4925360;29;20059;-78
2022/08/03 07:46:53;;;;;;;3.90;3.60;;;;;;;28.67;33.23;100056.63;4923713;29;20048;-78
2022/08/03 07:49:22;;;;;;;7.20;3.67;;;;;;;28.41;33.21;100034.19;4937712;29;20142;-79
2022/08/03 07:52:46;;;;;;;5.55;3.60;;;;;;;28.50;33.34;100052.41;4924297;29;20430;-78
2022/08/03 07:54:37;;;;;;;7.20;3.67;;;;;;;28.63;33.36;100039.88;4924547;29;20080;-80
2022/08/03 07:57:04;;;;;;;6.15;3.72;;;;;;;28.83;32.90;100051.91;4922509;29;20060;-78
2022/08/03 07:59:33;;;;;;;3.42;3.10;;;;;;;28.94;32.63;100052.03;4927099;29;20059;-79
2022/08/03 08:02:21;;;;;;;3.97;3.33;;;;;;;28.60;33.07;100021.25;4918395;29;20052;-77
2022/08/03 08:04:47;;;;;;;6.03;3.60;;;;;;;28.52;33.25;100053.16;4917717;29;20052;-79
2022/08/03 08:07:15;;;;;;;4.40;3.38;;;;;;;28.15;33.58;100018.88;4920013;29;20048;-79
2022/08/03 08:09:44;;;;;;;3.63;3.33;;;;;;;28.13;34.19;100058.41;4920250;29;20052;-80
2022/08/03 08:12:11;;;;;;;3.97;3.22;;;;;;;27.90;34.34;100046.53;4919183;29;20507;-79
2022/08/03 08:14:44;;;;;;;4.75;3.60;;;;;;;28.14;34.23;100064.66;4914066;29;20538;-78
2022/08/03 08:17:12;;;;;;;7.40;3.95;;;;;;;28.44;33.62;100052.78;4921566;29;20052;-78
2022/08/03 08:19:39;;;;;;;5.43;3.50;;;;;;;28.84;33.11;100044.72;4921100;29;20059;-80
2022/08/03 08:22:18;;;;;;;4.20;3.63;;;;;;;29.16;31.95;100054.06;4921258;29;20150;-79
2022/08/03 08:24:58;;;;;;;5.18;3.40;;;;;;;29.36;31.95;100032.94;4934216;29;20071;-77
2022/08/03 08:27:26;;;;;;;4.95;3.50;;;;;;;29.61;31.54;100046.34;4918958;29;20416;-78
2022/08/03 08:29:53;;;;;;;4.40;3.17;;;;;;;29.93;31.28;100048.53;4919346;29;20052;-78
2022/08/03 08:32:28;;;;;;;5.50;3.58;;;;;;;30.22;30.36;100050.84;4919300;29;20080;-78
2022/08/03 08:34:56;;;;;;;6.10;3.70;;;;;;;30.48;30.26;100050.75;4919252;29;20048;-79
2022/08/03 08:37:23;;;;;;;5.22;3.38;;;;;;;30.61;30.06;100055.09;4918774;29;20056;-77
2022/08/03 08:39:50;;;;;;;4.20;3.55;;;;;;;30.69;29.64;100064.41;4918757;29;20060;-77
2022/08/03 08:42:17;;;;;;;4.03;3.17;;;;;;;30.33;29.37;100042.00;4943488;29;20063;-78
2022/08/03 08:44:44;;;;;;;3.53;3.15;;;;;;;29.65;29.93;99966.25;4927115;29;20097;-78
2022/08/03 08:47:13;;;;;;;4.82;3.45;;;;;;;30.30;29.72;100020.69;4919788;29;20096;-78
2022/08/03 08:49:41;;;;;;;3.50;3.08;;;;;;;30.81;28.92;100047.28;4928371;29;20574;-77
2022/08/03 08:52:29;;;;;;;5.40;3.30;;;;;;;30.59;28.99;100027.38;4928970;29;20059;-77
2022/08/03 08:55:02;;;;;;;4.28;3.35;;;;;;;30.49;29.10;100053.31;4921383;29;20056;-78
2022/08/03 08:57:36;;;;;;;5.70;3.13;;;;;;;30.56;29.11;100051.88;4931411;29;20076;-77
2022/08/03 09:00:12;;;;;;;5.72;3.58;;;;;;;30.83;28.55;100039.94;4918540;29;20056;-76
2022/08/03 09:02:41;;;;;;;6.93;4.38;;;;;;;31.36;28.26;100051.03;4899746;29;20084;-77
2022/08/03 09:05:19;;;;;;;12.63;4.45;;;;;;;31.59;28.32;100051.88;4918762;29;20060;-78
2022/08/03 09:08:06;;;;;;;4.95;3.63;;;;;;;31.74;27.94;100060.56;4918735;29;20059;-77
2022/08/03 09:10:34;;;;;;;4.22;3.83;;;;;;;31.53;27.99;100033.47;4918230;29;20067;-77
2022/08/03 09:13:01;;;;;;;21.52;4.75;;;;;;;31.49;28.21;100050.91;4918627;29;20060;-77
2022/08/03 09:15:31;;;;;;;4.80;3.55;;;;;;;31.50;28.13;100049.91;4918156;29;20502;-77
2022/08/03 09:17:59;;;;;;;4.32;3.47;;;;;;;31.54;28.03;100055.94;4918696;29;20063;-77
2022/08/03 09:20:29;;;;;;;5.60;4.00;;;;;;;31.49;28.21;100055.44;4918868;29;20086;-77
2022/08/03 09:23:03;;;;;;;6.72;4.10;;;;;;;31.69;28.21;100053.81;4918512;29;20156;-77
2022/08/03 09:25:57;;;;;;;7.82;4.05;;;;;;;31.88;27.45;100056.72;4918243;29;20062;-77
2022/08/03 09:28:34;;;;;;;6.82;3.78;;;;;;;31.77;28.08;100060.31;4924451;29;20052;-75
2022/08/03 09:31:43;;;;;;;7.15;3.95;;;;;;;31.66;27.79;100057.63;4928556;29;20447;-77
2022/08/03 09:34:15;;;;;;;7.90;3.80;;;;;;;31.78;27.65;100056.63;4923601;29;20052;-78
2022/08/03 09:36:47;;;;;;;7.78;3.60;;;;;;;31.86;27.33;100063.22;4918508;29;20062;-78
2022/08/03 09:39:22;;;;;;;5.55;3.63;;;;;;;31.83;27.15;100053.53;4925766;29;20470;-78
2022/08/03 09:42:26;;;;;;;7.30;3.42;;;;;;;31.83;27.55;100048.97;4924461;29;20462;-79
2022/08/03 09:44:53;;;;;;;7.78;3.80;;;;;;;31.71;27.59;100044.63;4926077;29;20107;-78
2022/08/03 09:47:29;;;;;;;6.43;3.67;;;;;;;31.23;28.32;100012.50;4926106;29;20052;-77
2022/08/03 09:50:01;;;;;;;3.88;3.53;;;;;;;31.03;28.17;100047.31;4928950;29;20059;-79
2022/08/03 09:52:34;;;;;;;4.22;3.83;;;;;;;31.00;28.46;100049.41;4924731;29;20083;-79
2022/08/03 09:55:19;;;;;;;6.30;4.55;;;;;;;30.92;28.20;100019.50;4926668;29;20080;-78
2022/08/03 09:58:09;;;;;;;8.20;3.85;;;;;;;31.45;27.94;100043.16;4926332;29;20158;-79
2022/08/03 10:00:55;;;;;;;7.57;3.80;;;;;;;31.30;28.17;100040.72;4925373;29;20478;-78
2022/08/03 10:03:24;;;;;;;5.50;3.55;;;;;;;31.18;28.11;100018.25;4927763;29;20083;-78
2022/08/03 10:05:52;;;;;;;4.78;3.60;;;;;;;31.63;27.82;100047.06;4933673;29;20473;-80
2022/08/03 10:08:25;;;;;;;8.57;3.97;;;;;;;31.93;27.21;100040.97;4938181;29;20489;-79
2022/08/03 10:10:53;;;;;;;5.65;3.72;;;;;;;31.99;26.80;100048.63;4923774;29;20144;-79
2022/08/03 10:13:22;;;;;;;11.60;4.13;;;;;;;31.80;27.38;100046.53;4917250;29;20052;-80
2022/08/03 10:15:50;;;;;;;4.40;3.87;;;;;;;31.89;27.14;100047.63;4917177;29;20066;-80
2022/08/03 10:18:37;;;;;;;7.15;4.07;;;;;;;32.00;27.00;100042.22;4899698;29;20148;-80
2022/08/03 10:21:09;;;;;;;5.60;3.95;;;;;;;31.80;27.38;100016.84;4926249;29;20051;-79
2022/08/03 10:23:39;;;;;;;7.20;4.18;;;;;;;31.54;28.10;100051.38;4925225;29;20048;-80
2022/08/03 10:26:10;;;;;;;7.97;4.00;;;;;;;31.24;28.20;100025.00;4925461;29;20059;-79
2022/08/03 10:28:41;;;;;;;5.07;3.72;;;;;;;31.19;28.35;100021.81;4927240;29;20107;-80
2022/08/03 10:31:12;;;;;;;6.55;3.45;;;;;;;31.03;28.95;100058.09;4927116;29;20130;-79
2022/08/03 10:33:48;;;;;;;4.10;3.70;;;;;;;30.77;29.60;100065.53;4923122;29;20054;-79
2022/08/03 10:36:23;;;;;;;5.45;3.67;;;;;;;30.53;29.29;100008.13;4922669;29;20687;-79
2022/08/03 10:38:52;;;;;;;5.88;3.90;;;;;;;31.03;29.19;100065.34;4924201;29;20055;-79
2022/08/03 10:41:22;;;;;;;5.65;4.28;;;;;;;30.90;29.20;100057.38;4922595;29;20056;-78
2022/08/03 10:43:55;;;;;;;10.10;4.32;;;;;;;30.72;29.42;100065.03;4925511;29;20048;-79
2022/08/03 10:46:25;;;;;;;4.38;3.80;;;;;;;30.59;29.33;100034.63;4923350;29;20052;-78
2022/08/03 10:48:52;;;;;;;;;;;;;;;30.59;29.41;100061.56;4925933;29;20051;-80
2022/08/03 10:51:20;;;;;;;6.30;4.10;;;;;;;30.85;28.92;100069.44;4926731;29;20013;-80
2022/08/03 10:53:47;;;;;;;8.98;3.97;;;;;;;30.83;28.98;100065.03;4926107;29;20111;-79
2022/08/03 10:59:49;;;;;;;5.32;4.30;;;;;;;30.37;29.74;100055.13;4925083;29;20083;-79
2022/08/03 11:02:16;;;;;;;6.45;4.32;;;;;;;30.10;29.45;100014.09;4925696;29;20103;-80
2022/08/03 11:04:44;;;;;;;7.07;4.50;;;;;;;30.34;29.86;100065.28;4925349;29;20580;-78
2022/08/03 11:07:18;;;;;;;6.25;4.10;;;;;;;29.95;30.24;100033.13;4926878;29;20052;-79
2022/08/03 11:09:52;;;;;;;5.85;4.40;;;;;;;29.21;30.84;99991.88;4926224;29;20044;-78
2022/08/03 11:12:26;;;;;;;4.75;4.05;;;;;;;29.47;30.77;100008.84;4925579;29;20107;-78
2022/08/03 11:15:07;;;;;;;4.93;4.30;;;;;;;30.24;30.49;100059.69;4934415;29;20147;-78
2022/08/03 11:17:35;;;;;;;6.85;4.10;;;;;;;30.64;30.05;100070.16;4942528;29;20466;-78
2022/08/03 11:20:45;;;;;;;9.25;4.35;;;;;;;30.74;29.31;100055.00;4925346;29;20100;-78
2022/08/03 11:23:13;;;;;;;4.85;4.18;;;;;;;31.04;28.71;100067.09;4926706;29;20052;-79
2022/08/03 11:26:08;;;;;;;8.30;4.32;;;;;;;31.19;28.74;100065.84;4924041;29;20079;-77
2022/08/03 11:28:37;;;;;;;7.78;4.43;;;;;;;31.36;28.12;100045.63;4935680;29;20070;-80
2022/08/03 11:31:23;;;;;;;;;;;;;;;31.54;28.34;100059.50;4936048;29;20060;-80
2022/08/03 11:34:13;;;;;;;5.15;4.10;;;;;;;31.95;27.39;100060.63;4935045;29;20021;-79
2022/08/03 11:37:18;;;;;;;5.72;4.00;;;;;;;31.96;27.31;100058.78;4934499;29;20056;-78
2022/08/03 11:39:48;;;;;;;8.50;3.90;;;;;;;31.47;27.79;100063.69;4935604;29;20051;-79
2022/08/03 11:42:25;;;;;;;7.32;4.15;;;;;;;31.11;28.48;100056.66;4935588;29;20051;-77
2022/08/03 11:44:54;;;;;;;9.75;4.07;;;;;;;31.27;28.64;100067.06;4935504;29;20047;-79
2022/08/03 11:47:23;;;;;;;5.55;4.07;;;;;;;30.95;28.93;100057.00;4935338;29;20067;-78
2022/08/03 11:49:52;;;;;;;7.00;3.72;;;;;;;30.37;29.50;100019.22;4935013;29;20059;-78
2022/08/03 11:52:19;;;;;;;4.57;4.00;;;;;;;30.15;29.56;100050.47;4935681;29;20048;-78
2022/08/03 11:54:54;;;;;;;6.97;3.97;;;;;;;30.00;30.15;100054.31;4935044;29;20525;-77
2022/08/03 11:57:33;;;;;;;6.63;3.60;;;;;;;29.85;30.58;100024.00;4935070;29;20085;-78
2022/08/03 12:00:25;;;;;;;5.82;3.80;;;;;;;29.91;30.18;100026.25;4919267;29;20425;-78
2022/08/03 12:02:54;;;;;;;4.10;3.70;;;;;;;30.15;29.93;100060.38;4939647;29;20066;-78
2022/08/03 12:05:32;;;;;;;8.10;3.80;;;;;;;30.11;30.12;100051.66;4953873;29;20059;-79